Time;durP1;ratioP1;P1;durP2;ratioP2;P2;SDS_P1;SDS_P2;PMS_P1;PMS_P2;Temp;Humidity;BMP_temperature;BMP_pressure;BME280_temperature;BME280_humidity;BME280_pressure;Samples;Min_cycle;Max_cycle;Signal;HPM_P1;HPM_P2
2023/10/09 00:01:14;;;;;;;2.77;1.80;;;;;;;4.88;82.69;101358.77;1469911;88;22135;-80
2023/10/09 00:03:45;;;;;;;6.23;2.77;;;;;;;4.81;86.17;101354.81;1474713;88;21420;-80
2023/10/09 00:06:15;;;;;;;5.07;1.90;;;;;;;4.79;84.54;101342.72;1472984;88;22216;-82
2023/10/09 00:08:44;;;;;;;7.17;2.00;;;;;;;4.77;85.28;101336.23;1469949;88;23542;-83
2023/10/09 00:11:16;;;;;;;3.73;1.87;;;;;;;4.74;89.87;101344.28;1481932;88;22194;-84
2023/10/09 00:13:49;;;;;;;7.40;2.60;;;;;;;4.64;92.17;101343.13;1474381;88;22083;-84
2023/10/09 00:16:34;;;;;;;5.43;2.47;;;;;;;4.58;91.84;101340.86;1476163;88;22017;-83
2023/10/09 00:19:32;;;;;;;4.13;2.33;;;;;;;4.52;92.79;101344.67;1474367;88;22283;-83
2023/10/09 00:21:50;;;;;;;6.93;2.90;;;;;;;4.41;96.01;101341.33;1476530;88;22178;-82
2023/10/09 00:24:25;;;;;;;6.87;2.03;;;;;;;4.30;99.89;101331.91;1466066;88;23223;-81
2023/10/09 00:26:45;;;;;;;4.97;2.40;;;;;;;4.10;100.00;101329.55;1462001;88;22993;-83
2023/10/09 00:29:21;;;;;;;5.43;2.53;;;;;;;4.10;100.00;101329.55;1468898;88;21939;-83
2023/10/09 00:31:51;;;;;;;4.93;1.90;;;;;;;4.01;100.00;101329.58;1475567;88;23044;-83
2023/10/09 00:34:21;;;;;;;9.43;2.67;;;;;;;3.93;100.00;101331.30;1462458;88;22105;-83
2023/10/09 00:36:51;;;;;;;5.40;2.95;;;;;;;3.89;100.00;101327.16;1463498;88;22121;-82
2023/10/09 00:39:33;;;;;;;5.47;2.00;;;;;;;3.83;100.00;101319.64;1480013;88;22345;-79
2023/10/09 00:41:47;;;;;;;4.43;2.13;;;;;;;3.73;100.00;101304.03;1477770;88;22377;-80
2023/10/09 00:44:14;;;;;;;6.57;2.60;;;;;;;3.73;100.00;101304.03;1468655;88;22046;-79
2023/10/09 00:46:43;;;;;;;5.80;2.53;;;;;;;3.71;100.00;101308.49;1457326;88;22098;-80
2023/10/09 00:49:10;;;;;;;5.80;2.40;;;;;;;3.71;100.00;101308.49;1471854;88;22040;-83
2023/10/09 00:51:42;;;;;;;8.53;2.90;;;;;;;3.69;100.00;101303.35;1466756;88;22105;-83
2023/10/09 00:54:16;;;;;;;5.63;2.57;;;;;;;3.69;100.00;101303.35;1466268;88;22128;-81
2023/10/09 00:56:57;;;;;;;4.93;2.30;;;;;;;3.68;100.00;101304.73;1465443;88;23460;-80
2023/10/09 00:59:15;;;;;;;5.13;2.13;;;;;;;3.65;100.00;101306.20;1452724;88;22866;-81
2023/10/09 01:04:29;;;;;;;5.40;2.47;;;;;;;3.58;100.00;101310.93;1474254;88;22628;-80
2023/10/09 01:07:10;;;;;;;5.73;1.83;;;;;;;3.50;100.00;101313.94;1475180;88;21621;-79
2023/10/09 01:09:44;;;;;;;9.93;3.22;;;;;;;3.46;100.00;101326.81;1471960;88;22090;-80
2023/10/09 01:12:05;;;;;;;10.10;3.87;;;;;;;3.48;100.00;101327.59;1471382;88;21549;-80
2023/10/09 01:14:36;;;;;;;13.70;5.37;;;;;;;3.50;100.00;101338.80;1451788;88;21837;-80
2023/10/09 01:17:29;;;;;;;9.28;3.77;;;;;;;3.54;100.00;101332.50;1478691;88;22819;-79
2023/10/09 01:19:33;;;;;;;10.03;3.30;;;;;;;3.52;100.00;101329.11;1466226;88;21566;-80
2023/10/09 01:22:12;;;;;;;8.37;3.77;;;;;;;3.52;100.00;101329.11;1471247;88;21742;-80
2023/10/09 01:24:40;;;;;;;8.17;3.57;;;;;;;3.54;100.00;101333.81;1480753;88;21816;-79
2023/10/09 01:27:16;;;;;;;9.87;3.13;;;;;;;3.50;100.00;101344.04;1464251;88;22768;-79
2023/10/09 01:29:43;;;;;;;8.00;2.97;;;;;;;3.45;100.00;101341.28;1468541;88;21821;-80
2023/10/09 01:32:16;;;;;;;6.57;2.63;;;;;;;3.41;100.00;101339.76;1443529;88;21944;-80
2023/10/09 01:34:50;;;;;;;6.27;2.10;;;;;;;3.36;100.00;101337.36;1439492;88;21917;-80
2023/10/09 01:37:22;;;;;;;6.63;2.40;;;;;;;3.32;100.00;101339.30;1474173;88;21733;-80
2023/10/09 01:39:59;;;;;;;7.83;3.27;;;;;;;3.28;100.00;101326.01;1473278;88;21698;-80
2023/10/09 01:42:31;;;;;;;5.93;2.47;;;;;;;3.26;100.00;101329.63;1476116;88;21486;-78
2023/10/09 01:44:52;;;;;;;6.07;3.07;;;;;;;3.27;100.00;101334.76;1474891;88;21796;-81
2023/10/09 01:47:19;;;;;;;10.07;2.73;;;;;;;3.31;100.00;101338.05;1465580;88;21813;-83
2023/10/09 01:49:49;;;;;;;7.33;2.70;;;;;;;3.35;100.00;101340.92;1465945;88;22469;-82
2023/10/09 01:52:17;;;;;;;4.70;1.97;;;;;;;3.37;100.00;101344.31;1465106;88;22752;-80
2023/10/09 01:54:48;;;;;;;5.37;1.80;;;;;;;3.38;100.00;101342.91;1474292;88;21735;-80
2023/10/09 01:57:14;;;;;;;4.37;2.47;;;;;;;3.37;100.00;101349.55;1473691;88;21608;-81
2023/10/09 01:59:44;;;;;;;8.17;3.00;;;;;;;3.37;100.00;101349.55;1458738;88;22724;-84
2023/10/09 02:02:25;;;;;;;7.43;2.37;;;;;;;3.34;100.00;101351.85;1468065;88;22000;-81
2023/10/09 02:04:45;;;;;;;5.70;3.33;;;;;;;3.30;100.00;101345.53;1469686;88;22054;-80
2023/10/09 02:07:12;;;;;;;4.63;2.27;;;;;;;3.27;100.00;101338.69;1473713;88;21894;-81
2023/10/09 02:09:46;;;;;;;4.78;2.33;;;;;;;3.23;100.00;101330.62;1477601;88;21654;-80
2023/10/09 02:12:08;;;;;;;6.23;2.80;;;;;;;3.20;100.00;101337.78;1472627;88;22084;-81
2023/10/09 02:14:41;;;;;;;4.87;2.60;;;;;;;3.16;100.00;101341.87;1475826;88;21676;-80
2023/10/09 02:17:17;;;;;;;7.33;3.13;;;;;;;3.14;100.00;101352.86;1458571;88;21917;-81
2023/10/09 02:19:40;;;;;;;8.17;2.53;;;;;;;3.11;100.00;101355.63;1477144;88;21952;-81
2023/10/09 02:22:12;;;;;;;7.27;3.07;;;;;;;3.15;100.00;101359.77;1472143;88;21766;-81
2023/10/09 02:24:51;;;;;;;6.73;2.40;;;;;;;3.15;100.00;101356.32;1478902;88;21808;-81
2023/10/09 02:27:46;;;;;;;7.70;2.93;;;;;;;3.12;100.00;101341.63;1478164;88;22659;-80
2023/10/09 02:29:47;;;;;;;10.30;2.83;;;;;;;3.09;100.00;101335.70;1473603;88;22727;-81
2023/10/09 02:32:16;;;;;;;5.60;2.80;;;;;;;3.00;100.00;101318.71;1473509;88;21744;-81
2023/10/09 02:34:46;;;;;;;5.50;2.67;;;;;;;3.00;100.00;101318.71;1474429;88;21886;-80
2023/10/09 02:37:13;;;;;;;5.13;2.77;;;;;;;2.99;100.00;101327.45;1475999;88;21698;-80
2023/10/09 02:39:48;;;;;;;7.60;2.17;;;;;;;2.94;100.00;101343.86;1471865;88;22724;-81
2023/10/09 02:44:49;;;;;;;5.43;2.57;;;;;;;2.88;100.00;101340.25;1451847;88;22708;-81
2023/10/09 02:47:25;;;;;;;10.07;3.70;;;;;;;2.87;100.00;101338.07;1473320;88;21766;-80
2023/10/09 02:49:52;;;;;;;8.70;3.17;;;;;;;2.93;100.00;101331.69;1441865;88;21807;-81
2023/10/09 02:52:19;;;;;;;6.17;2.27;;;;;;;2.97;100.00;101325.41;1464243;88;21622;-81
2023/10/09 02:54:52;;;;;;;8.53;3.30;;;;;;;2.96;100.00;101323.69;1465978;88;21730;-83
2023/10/09 02:57:23;;;;;;;8.13;2.57;;;;;;;2.96;100.00;101323.69;1475084;88;22066;-83
2023/10/09 02:59:51;;;;;;;7.47;2.50;;;;;;;2.94;100.00;101320.33;1476602;88;21660;-80
2023/10/09 03:02:19;;;;;;;5.27;2.50;;;;;;;2.90;100.00;101321.38;1483384;88;21854;-81
2023/10/09 03:04:46;;;;;;;9.90;3.47;;;;;;;2.88;100.00;101316.72;1470035;88;21779;-81
2023/10/09 03:07:13;;;;;;;11.03;3.10;;;;;;;2.88;100.00;101319.33;1476812;88;21716;-82
2023/10/09 03:09:40;;;;;;;8.03;3.47;;;;;;;2.87;100.00;101308.47;1475725;88;21707;-81
2023/10/09 03:12:11;;;;;;;7.13;2.90;;;;;;;2.87;100.00;101315.00;1474154;88;22546;-81
2023/10/09 03:14:41;;;;;;;5.65;2.62;;;;;;;2.86;100.00;101321.16;1463484;88;21658;-81
2023/10/09 03:17:14;;;;;;;4.77;2.23;;;;;;;2.86;100.00;101315.94;1470538;88;21404;-81
2023/10/09 03:19:43;;;;;;;6.07;2.67;;;;;;;2.92;100.00;101321.70;1470480;88;21712;-83
2023/10/09 03:22:10;;;;;;;7.87;3.70;;;;;;;2.92;100.00;101321.70;1470305;88;21660;-83
2023/10/09 03:24:38;;;;;;;6.50;2.30;;;;;;;2.93;100.00;101327.77;1475852;88;21660;-83
2023/10/09 03:27:05;;;;;;;6.40;2.40;;;;;;;2.89;100.00;101324.47;1473572;88;21600;-83
2023/10/09 03:29:31;;;;;;;9.73;2.73;;;;;;;2.89;100.00;101322.31;1469370;88;21585;-83
2023/10/09 03:31:57;;;;;;;7.10;2.93;;;;;;;2.87;100.00;101312.39;1472268;88;22499;-82
2023/10/09 03:34:24;;;;;;;5.27;2.40;;;;;;;2.85;100.00;101314.22;1445587;88;21891;-83
2023/10/09 03:37:03;;;;;;;6.40;2.17;;;;;;;2.81;100.00;101317.46;1473961;88;21693;-85
2023/10/09 03:42:05;;;;;;;3.83;1.77;;;;;;;2.73;100.00;101323.98;1472618;88;21517;-79
2023/10/09 03:44:34;;;;;;;4.63;2.63;;;;;;;2.72;100.00;101334.91;1469436;88;21600;-81
2023/10/09 03:47:01;;;;;;;5.97;2.20;;;;;;;2.68;100.00;101339.45;1472180;88;21624;-82
2023/10/09 03:49:30;;;;;;;5.40;2.50;;;;;;;2.65;100.00;101346.14;1472044;88;21614;-82
2023/10/09 03:51:59;;;;;;;8.97;3.20;;;;;;;2.65;100.00;101333.53;1473850;88;21702;-81
2023/10/09 03:54:25;;;;;;;6.17;2.87;;;;;;;2.64;100.00;101322.20;1475354;88;22546;-82
2023/10/09 03:56:51;;;;;;;4.30;2.17;;;;;;;2.68;100.00;101309.86;1468902;88;21710;-82
2023/10/09 03:59:21;;;;;;;5.20;2.27;;;;;;;2.66;100.00;101304.69;1470486;88;21737;-84
2023/10/09 04:01:50;;;;;;;8.73;2.23;;;;;;;2.67;100.00;101319.44;1471915;88;22486;-84
2023/10/09 04:04:16;;;;;;;4.07;2.53;;;;;;;2.66;100.00;101316.92;1472589;88;21879;-84
2023/10/09 04:06:43;;;;;;;8.23;2.30;;;;;;;2.66;100.00;101311.69;1473605;88;22973;-83
2023/10/09 04:09:27;;;;;;;7.00;2.73;;;;;;;2.67;100.00;101312.06;1474230;88;21724;-83
2023/10/09 04:11:43;;;;;;;11.13;2.87;;;;;;;2.68;100.00;101306.78;1471747;88;21754;-83
2023/10/09 04:14:24;;;;;;;8.47;3.57;;;;;;;2.73;100.00;101315.68;1466304;88;22731;-84
2023/10/09 04:17:32;;;;;;;5.30;2.40;;;;;;;2.82;100.00;101311.33;1461793;88;21652;-83
2023/10/09 04:19:21;;;;;;;5.15;2.20;;;;;;;2.90;100.00;101322.69;1470828;88;22690;-83
2023/10/09 04:21:48;;;;;;;6.53;2.50;;;;;;;2.94;100.00;101326.40;1478540;88;21405;-83
2023/10/09 04:26:46;;;;;;;6.47;2.83;;;;;;;2.92;100.00;101323.47;1472196;88;21763;-85
2023/10/09 04:29:26;;;;;;;4.40;2.00;;;;;;;2.93;100.00;101319.92;1480164;88;21586;-84
2023/10/09 04:31:51;;;;;;;8.87;3.90;;;;;;;2.94;100.00;101303.33;1470533;88;22750;-83
2023/10/09 04:37:08;;;;;;;13.30;3.03;;;;;;;2.92;100.00;101313.02;1404419;92;21969;-83
2023/10/09 04:42:26;;;;;;;6.53;3.67;;;;;;;2.84;100.00;101308.16;1457089;89;21538;-83
2023/10/09 04:45:20;;;;;;;14.07;4.10;;;;;;;2.85;100.00;101316.84;1465436;89;22383;-83
2023/10/09 04:47:57;;;;;;;8.43;3.60;;;;;;;2.90;100.00;101320.08;1463126;89;21750;-83
2023/10/09 05:02:54;;;;;;;7.93;3.97;;;;;;;3.08;100.00;101311.33;1405258;89;22817;-83
2023/10/09 05:05:48;;;;;;;14.50;3.57;;;;;;;3.03;100.00;101322.47;1468354;89;21785;-81
2023/10/09 05:07:57;;;;;;;11.57;3.40;;;;;;;3.03;100.00;101322.47;1459806;89;21812;-82
2023/10/09 05:10:25;;;;;;;10.50;4.30;;;;;;;3.04;100.00;101322.01;1470490;89;21717;-82
2023/10/09 05:20:00;;;;;;;15.23;6.72;;;;;;;3.44;100.00;101316.88;1405609;91;22597;-81
2023/10/09 05:22:56;;;;;;;15.40;7.43;;;;;;;3.77;100.00;101312.09;1424669;91;21615;-82
2023/10/09 05:24:54;;;;;;;15.97;7.00;;;;;;;3.88;100.00;101319.38;1426940;91;22132;-82
2023/10/09 05:27:19;;;;;;;14.43;5.83;;;;;;;3.88;100.00;101319.38;1429310;91;21847;-83
2023/10/09 05:29:59;;;;;;;17.33;6.07;;;;;;;3.96;100.00;101295.77;1409950;92;22095;-82
2023/10/09 05:32:27;;;;;;;17.20;6.12;;;;;;;3.96;100.00;101295.77;1415345;92;22170;-79
2023/10/09 05:37:43;;;;;;;16.07;5.50;;;;;;;4.17;100.00;101296.82;1434504;91;22136;-80
2023/10/09 05:40:22;;;;;;;18.00;5.70;;;;;;;4.27;100.00;101287.53;1436484;91;23290;-80
2023/10/09 05:53:07;;;;;;;13.80;5.13;;;;;;;4.93;100.00;101306.88;1456730;88;22077;-84
2023/10/09 06:03:26;;;;;;;10.03;4.80;;;;;;;5.36;100.00;101276.77;1469036;89;21369;-83
2023/10/09 06:16:43;;;;;;;;;;;;;;;5.68;100.00;101288.86;1471683;89;21390;-80
2023/10/09 06:19:12;;;;;;;12.17;4.37;;;;;;;5.76;100.00;101274.31;1458923;89;20410;-80
2023/10/09 06:24:14;;;;;;;12.15;4.55;;;;;;;5.98;100.00;101270.36;1458221;89;21346;-81
2023/10/09 06:35:16;;;;;;;11.60;4.07;;;;;;;6.65;100.00;101258.10;1462726;89;21464;-82
2023/10/09 06:48:57;;;;;;;13.03;4.50;;;;;;;7.38;100.00;101248.28;1462702;89;21517;-78
2023/10/09 06:59:13;;;;;;;7.07;3.23;;;;;;;7.90;100.00;101242.44;1393742;89;21302;-77
2023/10/09 07:04:18;;;;;;;12.43;4.80;;;;;;;8.08;100.00;101254.28;1466187;89;21551;-78
2023/10/09 07:25:14;;;;;;;16.33;4.17;;;;;;;8.56;93.00;101261.38;1387478;89;21332;-84
2023/10/09 07:27:43;;;;;;;31.07;5.40;;;;;;;8.57;91.97;101258.64;1528504;89;22256;-85
2023/10/09 07:29:48;;;;;;;11.23;4.03;;;;;;;8.59;90.39;101265.95;1547425;89;21280;-84
2023/10/09 07:32:20;;;;;;;8.33;3.97;;;;;;;8.64;90.17;101267.42;1387350;89;22131;-85
2023/10/09 07:34:54;;;;;;;7.07;2.90;;;;;;;8.71;89.96;101272.59;1548441;89;21281;-85
2023/10/09 07:37:24;;;;;;;14.17;3.70;;;;;;;8.79;89.19;101282.09;1503644;89;21512;-84
2023/10/09 07:40:06;;;;;;;11.78;2.92;;;;;;;8.82;88.34;101281.86;1384976;90;21413;-85
2023/10/09 07:42:43;;;;;;;13.53;3.33;;;;;;;8.83;86.58;101262.42;1548138;89;21458;-84
2023/10/09 07:50:37;;;;;;;11.53;3.60;;;;;;;8.93;84.74;101211.10;1529631;89;21983;-85
2023/10/09 07:53:14;;;;;;;8.60;3.53;;;;;;;8.91;83.26;101205.92;1465232;89;21434;-83
2023/10/09 07:55:39;;;;;;;14.53;5.13;;;;;;;8.90;83.10;101202.94;1527451;89;21414;-84
2023/10/09 07:57:57;;;;;;;9.93;3.83;;;;;;;8.94;83.06;101207.00;1392413;90;22352;-84
2023/10/09 08:03:23;;;;;;;17.03;6.60;;;;;;;9.04;82.45;101203.20;1528774;89;21267;-84
2023/10/09 08:17:16;;;;;;;15.23;4.40;;;;;;;9.56;79.35;101183.73;1377209;89;21324;-84
2023/10/09 08:19:54;;;;;;;8.93;3.43;;;;;;;9.63;79.41;101183.58;1465668;89;21368;-84
2023/10/09 08:24:57;;;;;;;9.43;3.43;;;;;;;9.75;76.95;101172.02;1464765;89;21361;-84
2023/10/09 08:27:46;;;;;;;15.43;6.23;;;;;;;9.71;74.54;101165.31;1463413;89;21354;-83
2023/10/09 08:32:43;;;;;;;10.27;2.83;;;;;;;9.68;75.19;101168.20;1548426;89;21332;-81
2023/10/09 08:35:29;;;;;;;15.73;3.97;;;;;;;9.64;74.19;101153.56;1545935;89;21295;-80
2023/10/09 08:37:48;;;;;;;14.37;4.60;;;;;;;9.59;73.18;101149.96;1474744;89;21436;-80
2023/10/09 08:40:20;;;;;;;10.23;4.83;;;;;;;9.58;73.67;101159.32;1394706;89;22365;-81
2023/10/09 08:42:52;;;;;;;16.17;4.97;;;;;;;9.56;72.91;101174.48;1542245;89;22168;-82
2023/10/09 08:45:27;;;;;;;8.17;3.30;;;;;;;9.48;71.94;101183.84;1548330;89;22176;-81
2023/10/09 08:47:55;;;;;;;11.20;3.10;;;;;;;9.45;72.29;101184.09;1548604;89;21303;-81
2023/10/09 08:50:22;;;;;;;6.07;3.10;;;;;;;9.43;72.17;101187.33;1398972;89;21325;-77
2023/10/09 08:52:49;;;;;;;18.97;4.83;;;;;;;9.39;71.79;101207.03;1548589;89;22188;-79
2023/10/09 08:55:19;;;;;;;31.87;8.50;;;;;;;9.35;71.64;101217.50;1388065;89;21325;-84
2023/10/09 08:57:49;;;;;;;29.47;8.40;;;;;;;9.34;72.80;101217.12;1465155;89;21486;-84
2023/10/09 09:00:33;;;;;;;14.28;6.87;;;;;;;9.35;73.68;101229.39;1467536;89;21435;-83
2023/10/09 09:02:55;;;;;;;19.00;6.30;;;;;;;9.34;72.41;101234.29;1440575;89;22285;-81
2023/10/09 09:05:23;;;;;;;15.80;7.10;;;;;;;9.33;72.35;101235.75;1446227;89;21535;-81
2023/10/09 09:07:49;;;;;;;16.13;5.10;;;;;;;9.35;72.25;101226.75;1464350;89;21382;-81
2023/10/09 09:10:21;;;;;;;25.57;7.80;;;;;;;9.35;71.41;101221.46;1463623;89;21508;-83
2023/10/09 09:12:53;;;;;;;16.75;6.15;;;;;;;9.39;71.72;101204.88;1464290;89;22307;-82
2023/10/09 09:15:20;;;;;;;18.07;8.70;;;;;;;9.44;71.75;101187.70;1463608;89;22381;-78
2023/10/09 09:17:49;;;;;;;38.20;9.40;;;;;;;9.51;71.67;101189.86;1445204;89;21442;-78
2023/10/09 09:20:31;;;;;;;11.47;4.50;;;;;;;9.56;71.26;101190.34;1460625;89;21375;-84
2023/10/09 09:22:58;;;;;;;10.77;4.20;;;;;;;9.58;70.56;101183.11;1464581;89;21545;-80
2023/10/09 09:25:31;;;;;;;9.55;4.25;;;;;;;9.62;70.97;101176.14;1471569;89;21449;-79
2023/10/09 09:27:59;;;;;;;12.47;5.97;;;;;;;9.56;68.68;101164.75;1442843;89;21649;-83
2023/10/09 09:30:33;;;;;;;13.50;5.47;;;;;;;9.56;68.68;101164.75;1462793;89;21442;-76
2023/10/09 09:35:40;;;;;;;12.67;4.93;;;;;;;9.64;68.93;101161.50;1447407;89;21309;-78
2023/10/09 09:38:07;;;;;;;13.47;5.93;;;;;;;9.68;68.79;101165.07;1466710;89;21405;-78
2023/10/09 09:40:41;;;;;;;12.03;5.47;;;;;;;9.71;68.13;101169.27;1469046;89;21369;-78
2023/10/09 09:43:09;;;;;;;8.77;4.13;;;;;;;9.74;68.06;101165.55;1461044;89;21530;-78
2023/10/09 09:45:36;;;;;;;13.63;4.37;;;;;;;9.75;68.45;101162.77;1469368;89;21622;-78
2023/10/09 09:48:10;;;;;;;13.83;4.97;;;;;;;9.73;66.99;101168.67;1466191;89;22418;-78
2023/10/09 09:50:43;;;;;;;10.83;5.37;;;;;;;9.71;68.33;101167.95;1463446;89;21471;-78
2023/10/09 09:53:07;;;;;;;15.43;6.00;;;;;;;9.69;68.12;101181.77;1464556;89;21464;-78
2023/10/09 09:55:43;;;;;;;7.30;4.20;;;;;;;9.67;67.91;101185.03;1459130;89;21479;-77
2023/10/09 09:58:18;;;;;;;8.87;4.00;;;;;;;9.68;67.80;101187.53;1468807;89;22382;-77
2023/10/09 10:03:28;;;;;;;9.30;3.57;;;;;;;9.72;67.81;101194.73;1462924;89;21367;-77
2023/10/09 10:05:56;;;;;;;6.57;2.60;;;;;;;9.73;68.13;101199.08;1461498;89;21397;-81
2023/10/09 10:08:42;;;;;;;7.60;3.13;;;;;;;9.72;69.92;101170.94;1474271;89;22398;-81
2023/10/09 10:11:04;;;;;;;9.63;3.30;;;;;;;9.70;73.76;101156.55;1456914;89;21543;-83
2023/10/09 10:13:44;;;;;;;12.27;3.20;;;;;;;9.66;76.33;101141.05;1469676;89;22448;-83
2023/10/09 10:16:19;;;;;;;19.83;3.87;;;;;;;9.60;79.40;101134.94;1447175;89;21441;-83
2023/10/09 10:19:10;;;;;;;13.60;3.50;;;;;;;9.60;79.64;101124.37;1459917;89;21442;-83
2023/10/09 10:21:40;;;;;;;4.63;2.73;;;;;;;9.60;79.67;101121.72;1469552;89;22040;-83
2023/10/09 10:24:51;;;;;;;5.27;2.33;;;;;;;9.57;89.04;101112.23;1470229;89;21280;-83
2023/10/09 10:27:32;;;;;;;8.77;3.73;;;;;;;9.51;91.00;101107.94;1457259;89;21457;-83
2023/10/09 10:30:33;;;;;;;11.67;3.33;;;;;;;9.45;92.81;101110.11;1468156;89;21428;-81
2023/10/09 10:32:57;;;;;;;5.40;2.97;;;;;;;9.39;97.68;101100.03;1467118;89;21457;-82
2023/10/09 10:35:45;;;;;;;6.90;2.37;;;;;;;9.38;97.52;101101.02;1472917;89;21375;-83
2023/10/09 10:40:45;;;;;;;18.83;7.97;;;;;;;9.37;100.00;101078.66;1464810;89;21376;-82
2023/10/09 10:43:13;;;;;;;20.30;7.37;;;;;;;9.42;100.00;101071.22;1460411;89;21457;-82
2023/10/09 10:45:43;;;;;;;18.48;6.87;;;;;;;9.43;100.00;101063.14;1459734;89;21368;-82
2023/10/09 10:48:09;;;;;;;10.03;4.97;;;;;;;9.39;100.00;101063.05;1461697;89;21516;-81
2023/10/09 10:50:35;;;;;;;6.03;3.00;;;;;;;9.33;100.00;101067.52;1471428;89;21457;-83
2023/10/09 10:53:19;;;;;;;9.20;3.90;;;;;;;9.28;100.00;101065.72;1459411;89;21436;-82
2023/10/09 10:58:47;;;;;;;6.10;3.13;;;;;;;9.21;100.00;101039.45;1520863;85;25426;-83
2023/10/09 11:06:14;;;;;;;5.77;2.67;;;;;;;9.02;100.00;101028.20;1503734;86;22478;-81
2023/10/09 11:09:08;;;;;;;4.78;2.65;;;;;;;8.97;100.00;101031.20;1465547;89;21580;-80
2023/10/09 11:11:32;;;;;;;8.10;2.80;;;;;;;8.91;100.00;101022.45;1477526;88;22402;-81
2023/10/09 11:13:57;;;;;;;4.20;2.50;;;;;;;8.90;100.00;101004.94;1463928;89;22410;-81
2023/10/09 11:19:12;;;;;;;4.90;2.67;;;;;;;8.72;100.00;101000.66;1461771;89;21603;-81
2023/10/09 11:21:32;;;;;;;4.40;2.37;;;;;;;8.66;100.00;101000.28;1456358;89;21485;-81
2023/10/09 11:24:24;;;;;;;5.37;3.30;;;;;;;8.55;100.00;100986.64;1455179;89;21493;-81
2023/10/09 11:26:28;;;;;;;7.30;3.67;;;;;;;8.51;100.00;100961.44;1458594;89;21478;-81
2023/10/09 11:29:28;;;;;;;7.03;4.67;;;;;;;8.50;100.00;100950.05;1445041;89;21360;-81
2023/10/09 11:32:07;;;;;;;7.27;3.07;;;;;;;8.47;100.00;100943.70;1455097;89;21745;-81
2023/10/09 11:34:37;;;;;;;5.03;2.83;;;;;;;8.48;100.00;100950.64;1532671;89;21346;-82
2023/10/09 11:37:25;;;;;;;10.57;3.23;;;;;;;8.49;100.00;100956.30;1417216;88;22344;-83
2023/10/09 11:39:51;;;;;;;9.30;3.87;;;;;;;8.49;100.00;100957.62;1459766;89;21493;-83
2023/10/09 11:42:37;;;;;;;5.77;3.60;;;;;;;8.51;100.00;100941.16;1459676;89;22329;-80
2023/10/09 11:45:28;;;;;;;6.73;3.57;;;;;;;8.48;100.00;100936.13;1457245;89;22432;-80
2023/10/09 11:47:59;;;;;;;7.80;3.33;;;;;;;8.48;100.00;100941.41;1474409;88;21558;-80
2023/10/09 11:55:55;;;;;;;5.90;2.23;;;;;;;8.49;100.00;100929.92;1403437;88;22367;-83
2023/10/09 11:58:22;;;;;;;11.03;2.37;;;;;;;8.49;100.00;100923.32;1540960;88;21591;-82
2023/10/09 12:01:03;;;;;;;6.20;3.07;;;;;;;8.48;100.00;100917.67;1392044;88;21464;-81
2023/10/09 12:03:29;;;;;;;8.37;4.03;;;;;;;8.49;100.00;100916.73;1529222;90;21406;-82
2023/10/09 12:05:58;;;;;;;4.47;3.00;;;;;;;8.48;100.00;100915.03;1414845;87;21382;-81
2023/10/09 12:08:29;;;;;;;8.45;4.35;;;;;;;8.48;100.00;100914.20;1413041;86;22477;-82
2023/10/09 12:10:55;;;;;;;5.50;3.17;;;;;;;8.48;100.00;100918.98;1413395;87;22027;-81
2023/10/09 12:13:25;;;;;;;6.67;3.40;;;;;;;8.41;100.00;100915.66;1416068;87;21323;-82
2023/10/09 12:15:53;;;;;;;7.90;4.90;;;;;;;8.41;100.00;100923.09;1416865;87;21338;-81
2023/10/09 12:18:23;;;;;;;5.50;4.03;;;;;;;8.40;100.00;100920.55;1421712;87;21375;-81
2023/10/09 12:20:50;;;;;;;4.20;2.50;;;;;;;8.41;100.00;100924.89;1372949;90;21383;-82
2023/10/09 12:23:22;;;;;;;9.57;2.80;;;;;;;8.32;100.00;100925.11;1415767;87;21338;-83
2023/10/09 12:25:56;;;;;;;5.57;3.40;;;;;;;8.32;100.00;100926.42;1413737;86;21487;-82
2023/10/09 12:28:21;;;;;;;5.73;3.80;;;;;;;8.33;100.00;100925.45;1420696;86;21382;-82
2023/10/09 12:30:50;;;;;;;7.30;3.20;;;;;;;8.38;100.00;100923.30;1529101;90;21443;-81
2023/10/09 12:33:19;;;;;;;5.20;2.80;;;;;;;8.48;100.00;100915.03;1581357;87;21589;-83
2023/10/09 12:35:45;;;;;;;6.50;2.63;;;;;;;8.58;100.00;100916.47;1371106;90;22434;-83
2023/10/09 12:38:18;;;;;;;7.47;3.00;;;;;;;8.63;100.00;100912.13;1416872;87;21360;-81
2023/10/09 12:40:50;;;;;;;7.43;2.47;;;;;;;8.64;100.00;100909.87;1572921;87;21382;-83
2023/10/09 12:43:16;;;;;;;10.33;3.77;;;;;;;8.66;100.00;100893.41;1575593;87;21456;-83
2023/10/09 12:45:37;;;;;;;8.67;4.40;;;;;;;8.64;100.00;100884.31;1577596;86;21382;-83
2023/10/09 12:48:09;;;;;;;8.13;4.67;;;;;;;8.62;100.00;100886.72;1372394;90;21583;-83
2023/10/09 12:50:44;;;;;;;8.30;4.10;;;;;;;8.62;100.00;100886.23;1406942;87;21552;-82
2023/10/09 12:53:11;;;;;;;8.53;3.57;;;;;;;8.61;100.00;100873.18;1510655;90;21334;-82
2023/10/09 12:55:42;;;;;;;8.80;4.73;;;;;;;8.59;100.00;100860.09;1396277;88;21332;-84
2023/10/09 12:58:14;;;;;;;9.13;4.72;;;;;;;8.59;100.00;100853.02;1402595;88;21604;-82
2023/10/09 13:00:44;;;;;;;11.23;5.27;;;;;;;8.61;100.00;100864.78;1396341;89;21337;-81
2023/10/09 13:03:19;;;;;;;8.73;4.40;;;;;;;8.62;100.00;100860.33;1559153;88;21568;-80
2023/10/09 13:05:58;;;;;;;10.00;5.00;;;;;;;8.58;100.00;100853.98;1562086;88;21338;-82
2023/10/09 13:08:34;;;;;;;9.00;4.50;;;;;;;8.54;100.00;100844.63;1562176;86;21280;-80
2023/10/09 13:11:16;;;;;;;11.00;4.57;;;;;;;8.52;100.00;100836.02;1561398;86;22174;-83
2023/10/09 13:13:43;;;;;;;7.90;5.13;;;;;;;8.50;100.00;100835.30;1561912;88;21390;-83
2023/10/09 13:16:23;;;;;;;8.80;4.33;;;;;;;8.45;100.00;100853.77;1398766;87;21443;-84
2023/10/09 13:18:54;;;;;;;13.10;6.75;;;;;;;8.40;100.00;100858.13;1559025;86;21365;-83
2023/10/09 13:21:24;;;;;;;7.90;5.03;;;;;;;8.35;100.00;100857.61;1403752;86;21456;-83
2023/10/09 13:23:51;;;;;;;8.33;5.50;;;;;;;8.35;100.00;100833.87;1575791;86;21286;-82
2023/10/09 13:26:18;;;;;;;7.50;4.60;;;;;;;8.37;100.00;100822.70;1367367;91;22262;-82
2023/10/09 13:28:52;;;;;;;10.60;7.23;;;;;;;8.38;100.00;100801.97;1399477;87;21428;-82
2023/10/09 13:31:20;;;;;;;12.13;5.70;;;;;;;8.40;100.00;100797.91;1400108;88;21338;-82
2023/10/09 13:33:48;;;;;;;11.30;4.90;;;;;;;8.40;100.00;100801.86;1388593;89;21289;-82
2023/10/09 13:36:27;;;;;;;32.77;10.13;;;;;;;8.39;100.00;100810.27;1365285;90;21764;-82
2023/10/09 13:38:55;;;;;;;17.30;7.07;;;;;;;8.36;100.00;100810.48;1552109;87;21951;-81
2023/10/09 13:41:25;;;;;;;23.20;8.70;;;;;;;8.25;100.00;100819.73;1362234;90;21513;-80
2023/10/09 13:43:51;;;;;;;8.80;4.47;;;;;;;8.21;100.00;100812.56;1568686;87;21377;-82
2023/10/09 13:46:18;;;;;;;8.80;4.23;;;;;;;8.17;100.00;100800.59;1400338;88;21884;-81
2023/10/09 13:48:45;;;;;;;10.80;4.83;;;;;;;8.14;100.00;100796.86;1364180;91;21377;-82
2023/10/09 13:51:18;;;;;;;15.70;5.80;;;;;;;8.14;100.00;100785.86;1370407;90;21340;-82
2023/10/09 13:53:47;;;;;;;14.93;6.40;;;;;;;8.18;100.00;100776.37;1568296;87;22279;-82
2023/10/09 13:56:19;;;;;;;27.70;15.27;;;;;;;8.22;100.00;100772.03;1401579;88;22743;-84
2023/10/09 13:58:51;;;;;;;26.70;14.00;;;;;;;8.26;100.00;100778.75;1553692;88;21500;-82
2023/10/09 14:01:27;;;;;;;25.53;13.70;;;;;;;8.28;100.00;100776.81;1399819;88;21375;-82
2023/10/09 14:03:57;;;;;;;13.30;8.50;;;;;;;8.30;100.00;100784.61;1553466;86;21470;-83
2023/10/09 14:06:30;;;;;;;12.77;8.47;;;;;;;8.21;100.00;100798.05;1371053;89;21468;-81
2023/10/09 14:09:05;;;;;;;13.43;7.60;;;;;;;8.20;100.00;100800.80;1572333;86;21355;-82
2023/10/09 14:11:32;;;;;;;14.80;8.47;;;;;;;8.20;100.00;100817.94;1573313;86;22535;-81
2023/10/09 14:14:02;;;;;;;10.87;6.13;;;;;;;8.19;100.00;100822.87;1457725;86;21574;-86
2023/10/09 14:16:28;;;;;;;22.23;8.27;;;;;;;8.18;100.00;100802.75;1482129;86;21736;-81
2023/10/09 14:19:07;;;;;;;19.53;6.90;;;;;;;8.21;100.00;100781.41;1475639;86;22292;-84
2023/10/09 14:21:32;;;;;;;9.20;6.20;;;;;;;8.20;100.00;100777.94;1485205;88;21623;-84
2023/10/09 14:23:59;;;;;;;16.03;6.47;;;;;;;8.20;100.00;100787.62;1478985;86;21374;-82
2023/10/09 14:26:27;;;;;;;10.57;5.70;;;;;;;8.17;100.00;100790.50;1460930;86;23414;-82
2023/10/09 14:28:56;;;;;;;11.00;5.47;;;;;;;8.16;100.00;100778.30;1480421;86;22541;-81